createdAt,value
2018-04-14T00:00:30.370Z,100823.98
2018-04-14T00:02:58.648Z,100820.11
2018-04-14T00:05:26.927Z,100818.41
2018-04-14T00:07:55.194Z,100831.22
2018-04-14T00:10:23.483Z,100829.76
2018-04-14T00:12:51.753Z,100828.59
2018-04-14T00:15:20.038Z,100822.78
2018-04-14T00:17:48.330Z,100834.65
2018-04-14T00:20:16.614Z,100833.39
2018-04-14T00:22:44.910Z,100831.47
2018-04-14T00:25:13.192Z,100843.39
2018-04-14T00:27:41.478Z,100841.57
2018-04-14T00:30:09.766Z,100842.92
2018-04-14T00:32:38.061Z,100839.16
2018-04-14T00:35:06.366Z,100836.52
2018-04-14T00:37:34.646Z,100837.42
2018-04-14T00:40:02.929Z,100852.64
2018-04-14T00:42:31.334Z,100844.34
2018-04-14T00:44:59.623Z,100853.14
2018-04-14T00:47:27.906Z,100844.82
2018-04-14T00:49:56.189Z,100847.03
2018-04-14T00:52:24.471Z,100853.41
2018-04-14T00:54:52.746Z,100851.27
2018-04-14T00:57:21.030Z,100856.95
2018-04-14T01:02:46.222Z,100862.30
2018-04-14T01:05:14.501Z,100863.20
2018-04-14T01:07:42.786Z,100858.05
2018-04-14T01:10:11.058Z,100860.58
2018-04-14T01:12:39.349Z,100859.19
2018-04-14T01:15:07.615Z,100859.23
2018-04-14T01:17:35.907Z,100862.30
2018-04-14T01:20:04.177Z,100857.64
2018-04-14T01:22:32.719Z,100859.25
2018-04-14T01:25:00.994Z,100856.19
2018-04-14T01:27:29.294Z,100859.80
2018-04-14T01:29:57.601Z,100851.59
2018-04-14T01:32:25.881Z,100856.39
2018-04-14T01:34:54.158Z,100861.62
2018-04-14T01:37:22.440Z,100859.45
2018-04-14T01:39:50.729Z,100857.83
2018-04-14T01:42:19.024Z,100861.67
2018-04-14T01:44:47.306Z,100857.80
2018-04-14T01:47:15.592Z,100872.90
2018-04-14T01:49:43.885Z,100865.50
2018-04-14T01:52:12.169Z,100865.55
2018-04-14T01:54:40.454Z,100864.22
2018-04-14T01:57:09.678Z,100872.11
2018-04-14T01:59:37.958Z,100869.08
2018-04-14T02:02:06.247Z,100871.23
2018-04-14T02:04:34.525Z,100869.95
2018-04-14T02:07:02.813Z,100866.45
2018-04-14T02:09:31.111Z,100869.52
2018-04-14T02:11:59.403Z,100869.49
2018-04-14T02:14:27.682Z,100876.00
2018-04-14T02:16:55.981Z,100878.20
2018-04-14T02:19:24.267Z,100872.58
2018-04-14T02:21:52.552Z,100876.46
2018-04-14T02:24:20.830Z,100868.23
2018-04-14T02:26:49.118Z,100874.34
2018-04-14T02:29:17.400Z,100879.55
2018-04-14T02:31:45.686Z,100886.86
2018-04-14T02:34:13.963Z,100879.96
2018-04-14T02:36:42.238Z,100880.38
2018-04-14T02:39:10.514Z,100882.11
2018-04-14T02:41:38.807Z,100890.77
2018-04-14T02:44:07.088Z,100885.59
2018-04-14T02:46:35.381Z,100888.59
2018-04-14T02:49:03.658Z,100887.33
2018-04-14T02:51:31.930Z,100891.22
2018-04-14T02:54:00.224Z,100885.56
2018-04-14T02:56:28.507Z,100889.48
2018-04-14T02:58:56.800Z,100889.92
2018-04-14T03:01:25.077Z,100890.34
2018-04-14T03:03:53.359Z,100889.48
2018-04-14T03:06:21.641Z,100898.59
2018-04-14T03:08:49.927Z,100898.58
2018-04-14T03:11:18.210Z,100898.13
2018-04-14T03:13:46.497Z,100898.98
2018-04-14T03:16:14.770Z,100892.06
2018-04-14T03:18:43.064Z,100905.03
2018-04-14T03:21:11.330Z,100911.09
2018-04-14T03:23:39.626Z,100907.66
2018-04-14T03:26:07.898Z,100915.02
2018-04-14T03:28:36.946Z,100917.63
2018-04-14T03:31:05.235Z,100918.50
2018-04-14T03:33:33.514Z,100916.77
2018-04-14T03:36:01.794Z,100918.91
2018-04-14T03:38:30.070Z,100921.48
2018-04-14T03:40:58.360Z,100922.34
2018-04-14T03:43:26.626Z,100920.22
2018-04-14T03:45:54.917Z,100919.72
2018-04-14T03:48:23.200Z,100920.20
2018-04-14T03:50:51.466Z,100923.19
2018-04-14T03:53:19.758Z,100923.19
2018-04-14T03:55:48.022Z,100924.50
2018-04-14T03:58:16.306Z,100928.85
2018-04-14T04:00:44.582Z,100931.44
2018-04-14T04:03:12.863Z,100937.89
2018-04-14T04:05:41.141Z,100937.03
2018-04-14T04:08:09.425Z,100939.64
2018-04-14T04:10:37.693Z,100941.75
2018-04-14T04:13:05.985Z,100946.03
2018-04-14T04:15:34.262Z,100947.33
2018-04-14T04:18:02.538Z,100943.05
2018-04-14T04:20:42.569Z,100950.88
2018-04-14T04:23:22.509Z,100944.44
2018-04-14T04:25:50.503Z,100943.92
2018-04-14T04:28:18.493Z,100952.55
2018-04-14T04:30:46.498Z,100960.29
2018-04-14T04:33:14.503Z,100959.03
2018-04-14T04:35:42.484Z,100961.69
2018-04-14T04:38:10.513Z,100973.72
2018-04-14T04:40:38.478Z,100975.06
2018-04-14T04:43:06.489Z,100982.00
2018-04-14T04:45:34.482Z,100983.19
2018-04-14T04:48:02.482Z,100986.80
2018-04-14T04:50:30.475Z,100988.88
2018-04-14T04:52:58.479Z,100997.89
2018-04-14T04:55:26.475Z,101001.36
2018-04-14T04:57:54.481Z,101000.53
2018-04-14T05:00:22.486Z,100998.41
2018-04-14T05:02:50.474Z,101010.89
2018-04-14T05:05:18.485Z,101009.27
2018-04-14T05:07:46.484Z,101002.78
2018-04-14T05:10:14.484Z,101007.86
2018-04-14T05:12:42.473Z,101014.36
2018-04-14T05:15:10.479Z,101020.80
2018-04-14T05:17:38.472Z,101022.24
2018-04-14T05:20:06.473Z,101022.64
2018-04-14T05:22:34.470Z,101039.58
2018-04-14T05:25:02.680Z,101038.33
2018-04-14T05:27:30.685Z,101032.73
2018-04-14T05:29:58.674Z,101039.58
2018-04-14T05:32:26.678Z,101033.62
2018-04-14T05:34:54.676Z,101051.39
2018-04-14T05:37:22.666Z,101046.16
2018-04-14T05:39:50.654Z,101048.36
2018-04-14T05:42:18.665Z,101057.52
2018-04-14T05:44:46.662Z,101055.75
2018-04-14T05:47:14.669Z,101056.17
2018-04-14T05:49:42.668Z,101057.94
2018-04-14T05:52:10.662Z,101064.42
2018-04-14T05:54:38.663Z,101062.77
2018-04-14T05:57:06.653Z,101064.43
2018-04-14T05:59:34.670Z,101069.59
2018-04-14T06:02:02.662Z,101063.19
2018-04-14T06:04:30.686Z,101067.95
2018-04-14T06:06:58.676Z,101069.70
2018-04-14T06:09:26.665Z,101071.97
2018-04-14T06:11:54.675Z,101069.36
2018-04-14T06:14:22.658Z,101063.72
2018-04-14T06:16:50.674Z,101067.63
2018-04-14T06:19:18.675Z,101062.84
2018-04-14T06:21:46.669Z,101060.69
2018-04-14T06:24:14.655Z,101067.61
2018-04-14T06:26:42.926Z,101067.61
2018-04-14T06:29:10.924Z,101069.70
2018-04-14T06:31:38.918Z,101081.91
2018-04-14T06:34:06.918Z,101082.76
2018-04-14T06:36:34.918Z,101088.81
2018-04-14T06:39:02.929Z,101091.34
2018-04-14T06:41:30.928Z,101097.83
2018-04-14T06:43:58.943Z,101095.98
2018-04-14T06:46:27.011Z,101094.14
2018-04-14T06:48:54.958Z,101096.45
2018-04-14T06:51:22.962Z,101097.87
2018-04-14T06:53:50.951Z,101098.34
2018-04-14T06:56:18.958Z,101091.48
2018-04-14T06:58:46.946Z,101093.76
2018-04-14T07:01:14.947Z,101090.10
2018-04-14T07:03:42.942Z,101096.33
2018-04-14T07:06:10.939Z,101096.88
2018-04-14T07:08:38.940Z,101100.73
2018-04-14T07:11:06.949Z,101102.67
2018-04-14T07:13:34.944Z,101105.16
2018-04-14T07:16:02.930Z,101109.28
2018-04-14T07:18:30.934Z,101112.51
2018-04-14T07:20:58.930Z,101119.15
2018-04-14T07:23:26.980Z,101124.55
2018-04-14T07:25:54.970Z,101116.88
2018-04-14T07:28:22.970Z,101122.51
2018-04-14T07:30:50.962Z,101115.65
2018-04-14T07:33:18.974Z,101117.59
2018-04-14T07:35:46.962Z,101113.05
2018-04-14T07:38:14.945Z,101115.98
2018-04-14T07:40:42.942Z,101120.70
2018-04-14T07:43:10.941Z,101117.61
2018-04-14T07:45:38.940Z,101125.55
2018-04-14T07:48:06.926Z,101134.11
2018-04-14T07:50:34.931Z,101124.46
2018-04-14T07:53:02.924Z,101125.95
2018-04-14T07:55:30.943Z,101132.60
2018-04-14T07:57:58.958Z,101121.19
2018-04-14T08:00:26.946Z,101122.38
2018-04-14T08:02:54.954Z,101131.70
2018-04-14T08:05:22.938Z,101125.27
2018-04-14T08:07:50.934Z,101127.78
2018-04-14T08:10:18.922Z,101122.52
2018-04-14T08:12:46.918Z,101134.06
2018-04-14T08:15:14.911Z,101131.50
2018-04-14T08:17:42.920Z,101136.77
2018-04-14T08:20:10.918Z,101133.58
2018-04-14T08:22:38.912Z,101134.49
2018-04-14T08:25:06.928Z,101129.07
2018-04-14T08:27:34.927Z,101139.63
2018-04-14T08:30:02.999Z,101140.20
2018-04-14T08:32:30.927Z,101134.12
2018-04-14T08:34:58.926Z,101134.31
2018-04-14T08:37:26.955Z,101135.34
2018-04-14T08:39:54.903Z,101128.83
2018-04-14T08:42:22.915Z,101135.61
2018-04-14T08:44:50.902Z,101130.67
2018-04-14T08:47:18.914Z,101126.27
2018-04-14T08:49:46.901Z,101136.02
2018-04-14T08:52:14.907Z,101139.58
2018-04-14T08:54:42.907Z,101138.89
2018-04-14T08:57:10.918Z,101138.36
2018-04-14T08:59:38.938Z,101144.38
2018-04-14T09:02:06.932Z,101141.02
2018-04-14T09:04:34.987Z,101148.55
2018-04-14T09:07:02.993Z,101140.19
2018-04-14T09:09:30.994Z,101147.01
2018-04-14T09:11:58.995Z,101141.13
2018-04-14T09:14:26.989Z,101143.52
2018-04-14T09:16:54.987Z,101144.47
2018-04-14T09:19:23.296Z,101151.95
2018-04-14T09:21:51.566Z,101145.56
2018-04-14T09:24:19.859Z,101147.34
2018-04-14T09:26:48.151Z,101149.55
2018-04-14T09:29:16.416Z,101135.45
2018-04-14T09:31:44.694Z,101137.11
2018-04-14T09:34:13.118Z,101135.51
2018-04-14T09:36:41.414Z,101139.00
2018-04-14T09:39:09.684Z,101131.24
2018-04-14T09:41:37.978Z,101134.98
2018-04-14T09:44:06.262Z,101133.23
2018-04-14T09:46:34.544Z,101137.58
2018-04-14T09:49:02.820Z,101134.38
2018-04-14T09:51:31.094Z,101128.34
2018-04-14T09:53:59.377Z,101132.56
2018-04-14T09:56:27.658Z,101127.75
2018-04-14T09:58:55.938Z,101124.98
2018-04-14T10:01:28.146Z,101119.98
2018-04-14T10:03:58.330Z,101126.77
2018-04-14T10:06:26.631Z,101118.34
2018-04-14T10:08:54.918Z,101118.46
2018-04-14T10:11:23.207Z,101120.81
2018-04-14T10:13:51.500Z,101116.23
2018-04-14T10:16:19.826Z,101109.34
2018-04-14T10:18:48.900Z,101110.61
2018-04-14T10:21:17.186Z,101111.73
2018-04-14T10:23:45.451Z,101094.37
2018-04-14T10:26:13.734Z,101097.36
2018-04-14T10:28:42.015Z,101081.99
2018-04-14T10:31:10.309Z,101079.18
2018-04-14T10:33:38.598Z,101087.09
2018-04-14T10:36:06.875Z,101091.77
2018-04-14T10:38:35.151Z,101085.23
2018-04-14T10:41:03.418Z,101080.39
2018-04-14T10:43:31.698Z,101072.35
2018-04-14T10:45:59.971Z,101068.33
2018-04-14T10:48:28.252Z,101070.78
2018-04-14T10:50:56.522Z,101070.59
2018-04-14T10:53:24.806Z,101060.02
2018-04-14T10:55:53.081Z,101069.39
2018-04-14T10:58:21.351Z,101070.84
2018-04-14T11:00:49.630Z,101074.06
2018-04-14T11:03:17.907Z,101069.13
2018-04-14T11:05:46.182Z,101065.27
2018-04-14T11:08:14.459Z,101059.11
2018-04-14T11:10:42.743Z,101062.57
2018-04-14T11:13:11.014Z,101073.40
2018-04-14T11:15:39.303Z,101075.70
2018-04-14T11:18:07.579Z,101085.05
2018-04-14T11:20:35.908Z,101092.54
2018-04-14T11:23:04.130Z,101076.09
2018-04-14T11:25:32.402Z,101069.35
2018-04-14T11:28:00.682Z,101067.88
2018-04-14T11:30:28.954Z,101079.20
2018-04-14T11:32:57.234Z,101075.35
2018-04-14T11:35:25.513Z,101067.60
2018-04-14T11:37:53.814Z,101074.73
2018-04-14T11:40:22.108Z,101076.56
2018-04-14T11:42:50.382Z,101085.98
2018-04-14T11:45:18.707Z,101091.53
2018-04-14T11:47:46.939Z,101084.42
2018-04-14T11:50:15.238Z,101093.26
2018-04-14T11:52:43.530Z,101092.50
2018-04-14T11:55:11.813Z,101089.44
2018-04-14T11:57:40.090Z,101090.48
2018-04-14T12:00:08.382Z,101085.66
2018-04-14T12:02:36.682Z,101076.78
2018-04-14T12:05:04.959Z,101075.72
2018-04-14T12:07:34.205Z,101085.67
2018-04-14T12:10:02.483Z,101094.95
2018-04-14T12:12:30.772Z,101092.81
2018-04-14T12:14:59.050Z,101084.70
2018-04-14T12:17:27.322Z,101086.42
2018-04-14T12:19:55.624Z,101082.55
2018-04-14T12:22:23.890Z,101080.44
2018-04-14T12:24:52.173Z,101080.02
2018-04-14T12:27:20.447Z,101081.88
2018-04-14T12:29:48.738Z,101081.13
2018-04-14T12:32:17.015Z,101089.84
2018-04-14T12:34:45.289Z,101087.22
2018-04-14T12:37:13.574Z,101089.48
2018-04-14T12:39:41.853Z,101096.93
2018-04-14T12:42:10.143Z,101098.59
2018-04-14T12:44:38.413Z,101095.44
2018-04-14T12:47:06.702Z,101090.60
2018-04-14T12:49:34.982Z,101089.02
2018-04-14T12:52:03.260Z,101092.13
2018-04-14T12:54:31.534Z,101091.31
2018-04-14T12:56:59.805Z,101093.19
2018-04-14T12:59:28.086Z,101095.28
2018-04-14T13:01:56.360Z,101091.23
2018-04-14T13:04:24.727Z,101095.98
2018-04-14T13:06:53.001Z,101090.48
2018-04-14T13:09:21.279Z,101101.15
2018-04-14T13:11:49.562Z,101097.56
2018-04-14T13:14:17.836Z,101096.70
2018-04-14T13:16:46.126Z,101092.45
2018-04-14T13:19:14.414Z,101090.83
2018-04-14T13:21:43.674Z,101087.22
2018-04-14T13:24:11.959Z,101080.63
2018-04-14T13:26:40.239Z,101076.07
2018-04-14T13:29:08.525Z,101083.33
2018-04-14T13:31:36.794Z,101072.15
2018-04-14T13:34:05.066Z,101078.00
2018-04-14T13:36:33.350Z,101070.47
2018-04-14T13:39:01.622Z,101072.62
2018-04-14T13:41:29.999Z,101066.05
2018-04-14T13:43:58.274Z,101071.09
2018-04-14T13:46:26.566Z,101069.07
2018-04-14T13:48:54.847Z,101065.95
2018-04-14T13:51:23.131Z,101063.66
2018-04-14T13:53:51.416Z,101064.82
2018-04-14T13:56:19.686Z,101055.86
2018-04-14T13:58:47.966Z,101064.61
2018-04-14T14:01:16.243Z,101058.78
2018-04-14T14:03:44.514Z,101050.00
2018-04-14T14:06:12.788Z,101047.98
2018-04-14T14:08:41.066Z,101047.92
2018-04-14T14:11:09.343Z,101043.97
2018-04-14T14:13:37.620Z,101040.59
2018-04-14T14:16:05.900Z,101027.80
2018-04-14T14:18:34.173Z,101036.80
2018-04-14T14:21:02.469Z,101023.44
2018-04-14T14:23:30.886Z,101030.40
2018-04-14T14:25:59.189Z,101023.33
2018-04-14T14:28:27.451Z,101019.45
2018-04-14T14:30:56.705Z,101022.23
2018-04-14T14:33:24.978Z,101017.81
2018-04-14T14:35:53.254Z,101016.63
2018-04-14T14:38:21.554Z,101011.64
2018-04-14T14:40:49.825Z,101015.34
2018-04-14T14:43:18.098Z,101006.39
2018-04-14T14:45:46.372Z,101006.19
2018-04-14T14:48:14.662Z,101002.03
2018-04-14T14:50:42.931Z,101005.52
2018-04-14T14:53:11.238Z,101003.27
2018-04-14T14:55:39.514Z,101001.25
2018-04-14T14:58:07.807Z,101000.30
2018-04-14T15:00:36.083Z,100993.27
2018-04-14T15:03:04.365Z,100992.86
2018-04-14T15:05:32.674Z,100988.60
2018-04-14T15:08:00.948Z,100994.21
2018-04-14T15:10:29.232Z,100988.86
2018-04-14T15:12:57.498Z,100992.70
2018-04-14T15:15:25.779Z,100989.00
2018-04-14T15:17:54.054Z,100992.97
2018-04-14T15:20:22.362Z,100988.48
2018-04-14T15:22:50.641Z,100988.76
2018-04-14T15:25:18.930Z,100987.52
2018-04-14T15:27:47.209Z,100981.93
2018-04-14T15:30:15.478Z,100985.98
2018-04-14T15:32:43.769Z,100988.27
2018-04-14T15:35:12.041Z,100986.59
2018-04-14T15:37:40.322Z,100982.77
2018-04-14T15:40:08.598Z,100984.09
2018-04-14T15:42:36.882Z,100981.58
2018-04-14T15:45:05.159Z,100978.28
2018-04-14T15:47:33.447Z,100974.37
2018-04-14T15:50:01.722Z,100976.66
2018-04-14T15:52:30.028Z,100986.54
2018-04-14T15:54:58.298Z,100979.80
2018-04-14T15:57:26.576Z,100979.09
2018-04-14T15:59:54.858Z,100974.95
2018-04-14T16:02:23.126Z,100978.03
2018-04-14T16:04:51.415Z,100975.23
2018-04-14T16:07:19.683Z,100974.02
2018-04-14T16:09:47.962Z,100977.08
2018-04-14T16:12:16.234Z,100978.30
2018-04-14T16:14:44.526Z,100977.91
2018-04-14T16:17:12.806Z,100985.47
2018-04-14T16:19:41.103Z,100975.50
2018-04-14T16:22:09.387Z,100972.74
2018-04-14T16:24:37.662Z,100974.88
2018-04-14T16:27:05.964Z,100978.09
2018-04-14T16:29:34.239Z,100979.08
2018-04-14T16:32:02.518Z,100982.55
2018-04-14T16:34:30.786Z,100983.99
2018-04-14T16:36:59.099Z,100988.23
2018-04-14T16:39:27.373Z,100990.81
2018-04-14T16:41:55.662Z,100990.13
2018-04-14T16:44:23.927Z,100992.80
2018-04-14T16:46:52.214Z,100994.16
2018-04-14T16:49:20.533Z,100991.19
2018-04-14T16:51:48.758Z,100994.38
2018-04-14T16:54:17.079Z,100994.17
2018-04-14T16:56:45.353Z,100997.15
2018-04-14T16:59:13.650Z,100997.76
2018-04-14T17:01:41.930Z,101000.67
2018-04-14T17:04:10.230Z,101006.34
2018-04-14T17:06:38.520Z,101003.73
2018-04-14T17:09:06.805Z,101004.36
2018-04-14T17:11:35.130Z,101000.16
2018-04-14T17:14:03.460Z,101005.97
2018-04-14T17:16:31.744Z,101008.44
2018-04-14T17:19:00.027Z,101015.27
2018-04-14T17:21:28.328Z,101007.11
2018-04-14T17:23:56.615Z,101009.83
2018-04-14T17:26:24.915Z,101008.03
2018-04-14T17:28:53.202Z,101004.05
2018-04-14T17:31:21.497Z,101006.23
2018-04-14T17:33:49.818Z,101008.02
2018-04-14T17:36:18.116Z,101009.86
2018-04-14T17:38:46.407Z,101009.20
2018-04-14T17:41:14.698Z,101010.31
2018-04-14T17:43:42.990Z,101009.86
2018-04-14T17:46:11.278Z,101003.55
2018-04-14T17:48:39.583Z,101005.08
2018-04-14T17:51:07.880Z,101008.11
2018-04-14T17:53:36.175Z,101008.44
2018-04-14T17:56:04.459Z,101005.42
2018-04-14T17:58:32.755Z,101006.13
2018-04-14T18:01:01.038Z,101005.20
2018-04-14T18:03:29.329Z,101002.19
2018-04-14T18:05:57.622Z,101003.98
2018-04-14T18:08:25.922Z,100996.94
2018-04-14T18:10:54.206Z,101001.05
2018-04-14T18:13:22.494Z,100997.09
2018-04-14T18:15:50.799Z,100996.05
2018-04-14T18:18:19.082Z,101000.23
2018-04-14T18:20:47.378Z,101003.09
2018-04-14T18:23:15.666Z,100999.52
2018-04-14T18:25:44.233Z,101010.71
2018-04-14T18:28:12.521Z,101005.11
2018-04-14T18:30:40.846Z,101006.84
2018-04-14T18:33:09.151Z,101004.77
2018-04-14T18:35:37.442Z,101018.11
2018-04-14T18:38:05.727Z,101018.71
2018-04-14T18:40:34.015Z,101015.95
2018-04-14T18:43:02.327Z,101016.91
2018-04-14T18:45:30.615Z,101016.84
2018-04-14T18:47:58.909Z,101028.11
2018-04-14T18:50:27.197Z,101032.70
2018-04-14T18:52:55.503Z,101041.80
2018-04-14T18:55:23.781Z,101038.48
2018-04-14T18:57:52.076Z,101034.88
2018-04-14T19:00:20.358Z,101027.90
2018-04-14T19:02:48.651Z,101034.56
2018-04-14T19:05:16.950Z,101041.34
2018-04-14T19:07:45.238Z,101044.02
2018-04-14T19:10:13.538Z,101048.84
2018-04-14T19:12:41.827Z,101045.27
2018-04-14T19:15:10.115Z,101053.17
2018-04-14T19:17:38.400Z,101048.31
2018-04-14T19:20:06.695Z,101057.00
2018-04-14T19:22:34.993Z,101051.61
2018-04-14T19:25:03.288Z,101048.25
2018-04-14T19:27:31.578Z,101047.84
2018-04-14T19:29:59.882Z,101057.42
2018-04-14T19:32:28.222Z,101056.93
2018-04-14T19:34:56.479Z,101056.98
2018-04-14T19:37:24.767Z,101054.63
2018-04-14T19:39:53.053Z,101048.95
2018-04-14T19:42:21.353Z,101043.09
2018-04-14T19:44:49.638Z,101049.97
2018-04-14T19:47:17.930Z,101049.80
2018-04-14T19:49:46.220Z,101042.36
2018-04-14T19:52:14.514Z,101041.48
2018-04-14T19:54:42.798Z,101037.53
2018-04-14T19:57:11.110Z,101040.79
2018-04-14T19:59:39.404Z,101043.08
2018-04-14T20:02:07.682Z,101046.19
2018-04-14T20:04:35.994Z,101045.24
2018-04-14T20:07:04.343Z,101038.78
2018-04-14T20:09:32.574Z,101041.54
2018-04-14T20:12:00.855Z,101026.31
2018-04-14T20:14:29.151Z,101028.62
2018-04-14T20:16:57.434Z,101026.00
2018-04-14T20:19:25.727Z,101027.97
2018-04-14T20:21:54.017Z,101033.33
2018-04-14T20:24:22.326Z,101025.59
2018-04-14T20:26:50.602Z,101034.01
2018-04-14T20:29:18.886Z,101028.61
2018-04-14T20:31:47.174Z,101029.70
2018-04-14T20:34:15.471Z,101028.40
2018-04-14T20:36:43.774Z,101035.89
2018-04-14T20:39:12.202Z,101027.58
2018-04-14T20:41:40.498Z,101021.19
2018-04-14T20:44:08.782Z,101021.27
2018-04-14T20:46:37.091Z,101021.09
2018-04-14T20:49:05.383Z,101018.46
2018-04-14T20:51:33.666Z,101022.85
2018-04-14T20:54:01.966Z,101019.09
2018-04-14T20:56:30.249Z,101015.95
2018-04-14T20:58:58.562Z,101017.27
2018-04-14T21:01:26.826Z,101018.22
2018-04-14T21:03:55.134Z,101023.45
2018-04-14T21:06:23.431Z,101019.09
2018-04-14T21:08:51.724Z,101022.08
2018-04-14T21:11:20.027Z,101021.53
2018-04-14T21:13:48.320Z,101017.67
2018-04-14T21:16:16.609Z,101014.55
2018-04-14T21:18:44.902Z,101008.86
2018-04-14T21:21:13.207Z,101008.84
2018-04-14T21:23:41.495Z,101007.84
2018-04-14T21:26:09.794Z,101001.72
2018-04-14T21:28:38.082Z,101002.55
2018-04-14T21:31:06.366Z,100998.66
2018-04-14T21:33:34.665Z,100996.86
2018-04-14T21:36:02.958Z,100994.23
2018-04-14T21:38:31.258Z,101000.70
2018-04-14T21:40:59.542Z,101000.38
2018-04-14T21:43:27.834Z,101001.80
2018-04-14T21:45:56.121Z,100998.24
2018-04-14T21:48:24.426Z,100997.02
2018-04-14T21:50:52.722Z,100999.12
2018-04-14T21:53:21.057Z,100992.50
2018-04-14T21:55:49.302Z,100994.41
2018-04-14T21:58:17.597Z,100994.98
2018-04-14T22:00:45.882Z,100991.48
2018-04-14T22:03:14.171Z,100991.91
2018-04-14T22:05:42.477Z,100986.59
2018-04-14T22:08:10.762Z,100992.76
2018-04-14T22:10:39.070Z,100997.02
2018-04-14T22:13:07.357Z,100987.98
2018-04-14T22:15:35.647Z,101002.30
2018-04-14T22:18:03.946Z,100996.30
2018-04-14T22:20:32.226Z,100998.40
2018-04-14T22:23:00.535Z,100996.61
2018-04-14T22:25:28.822Z,100995.46
2018-04-14T22:27:57.112Z,101008.95
2018-04-14T22:30:25.406Z,101000.63
2018-04-14T22:32:53.718Z,101008.22
2018-04-14T22:35:22.012Z,100997.67
2018-04-14T22:37:50.311Z,101011.41
2018-04-14T22:40:18.602Z,101007.91
2018-04-14T22:42:46.888Z,101015.63
2018-04-14T22:45:15.183Z,101008.66
2018-04-14T22:47:43.458Z,101008.50
2018-04-14T22:50:11.759Z,101014.45
2018-04-14T22:52:40.198Z,101016.80
2018-04-14T22:55:08.494Z,101021.00
2018-04-14T22:57:36.786Z,101010.29
2018-04-14T23:00:05.069Z,101010.77
2018-04-14T23:02:33.082Z,101006.86
2018-04-14T23:05:01.362Z,101009.36
2018-04-14T23:07:29.682Z,100999.09
2018-04-14T23:09:57.978Z,100997.27
2018-04-14T23:12:26.264Z,101004.78
2018-04-14T23:17:51.523Z,101006.22
2018-04-14T23:20:19.814Z,101005.64
2018-04-14T23:22:48.102Z,101009.59
2018-04-14T23:25:16.387Z,101001.02
2018-04-14T23:27:44.676Z,101017.97
2018-04-14T23:30:12.969Z,101015.02
2018-04-14T23:32:41.255Z,101014.60
2018-04-14T23:35:09.534Z,101017.64
2018-04-14T23:37:37.826Z,101020.70
2018-04-14T23:40:06.118Z,101020.28
2018-04-14T23:42:34.411Z,101019.59
2018-04-14T23:45:02.711Z,101019.16
2018-04-14T23:47:31.003Z,101014.19
2018-04-14T23:49:59.294Z,101012.70
2018-04-14T23:52:27.583Z,101015.88
2018-04-14T23:54:55.890Z,101020.28
2018-04-14T23:57:24.175Z,101018.88
2018-04-14T23:59:52.497Z,101013.56
